Time;durP1;ratioP1;P1;durP2;ratioP2;P2;SDS_P1;SDS_P2;PMS_P1;PMS_P2;Temp;Humidity;BMP_temperature;BMP_pressure;BME280_temperature;BME280_humidity;BME280_pressure;Samples;Min_cycle;Max_cycle;Signal;HPM_P1;HPM_P2
2021/06/07 00:00:20;;;;;;;17.55;15.75;;;460.90;2124.80;;;;;;5096052;28;20142;-68
2021/06/07 00:02:47;;;;;;;19.58;16.33;;;460.90;2124.80;;;;;;5096162;28;20027;-68
2021/06/07 00:05:13;;;;;;;18.60;16.40;;;460.90;2124.80;;;;;;5095887;28;20055;-68
2021/06/07 00:07:39;;;;;;;18.33;16.40;;;460.90;2124.80;;;;;;5095814;28;20209;-68
2021/06/07 00:10:10;;;;;;;17.88;15.55;;;460.90;2124.80;;;;;;5095882;28;20020;-68
2021/06/07 00:12:36;;;;;;;17.20;15.40;;;460.90;2124.80;;;;;;5095871;28;20355;-69
2021/06/07 00:15:05;;;;;;;17.52;15.68;;;460.80;2124.80;;;;;;5095783;28;20121;-68
2021/06/07 00:17:31;;;;;;;19.52;16.65;;;460.80;2124.80;;;;;;5095578;28;20035;-68
2021/06/07 00:19:56;;;;;;;17.20;15.10;;;460.80;2124.80;;;;;;5095423;28;20017;-68
2021/06/07 00:22:22;;;;;;;17.98;16.08;;;460.80;2124.80;;;;;;5094517;28;20192;-68
2021/06/07 00:24:48;;;;;;;16.95;15.10;;;460.80;2124.80;;;;;;5095341;28;20101;-68
2021/06/07 00:27:14;;;;;;;20.25;15.85;;;460.80;2124.80;;;;;;5095490;28;20504;-68
2021/06/07 00:29:40;;;;;;;18.40;15.30;;;460.80;2124.80;;;;;;5095508;28;20541;-68
2021/06/07 00:32:06;;;;;;;16.48;14.77;;;436.10;2099.20;;;;;;5095545;28;20060;-68
2021/06/07 00:34:32;;;;;;;20.02;15.43;;;436.10;2099.20;;;;;;5095468;28;20051;-68
2021/06/07 00:36:57;;;;;;;17.98;16.08;;;436.00;2099.20;;;;;;5095255;28;20493;-68
2021/06/07 00:39:23;;;;;;;19.08;17.05;;;436.00;2099.20;;;;;;5095215;28;20470;-68
2021/06/07 00:41:50;;;;;;;16.30;14.65;;;436.00;2073.60;;;;;;5095212;28;20118;-67
2021/06/07 00:44:22;;;;;;;18.02;15.30;;;435.90;2099.20;;;;;;5095222;28;20020;-68
2021/06/07 00:46:48;;;;;;;18.05;15.18;;;435.90;2073.60;;;;;;5093665;28;20038;-68
2021/06/07 00:49:15;;;;;;;16.88;15.27;;;435.90;2073.60;;;;;;5095077;28;20027;-68
2021/06/07 00:51:42;;;;;;;17.60;15.45;;;435.90;2099.20;;;;;;5094831;28;20028;-68
2021/06/07 00:54:08;;;;;;;20.38;14.13;;;435.90;2099.20;;;;;;5094857;28;20056;-68
2021/06/07 00:56:34;;;;;;;16.75;14.40;;;435.80;2099.20;;;;;;5095072;28;20475;-68
2021/06/07 00:59:00;;;;;;;16.77;14.52;;;435.90;2099.20;;;;;;5094906;28;20016;-68
2021/06/07 01:01:28;;;;;;;16.50;14.82;;;435.80;2099.20;;;;;;5094885;28;20500;-68
2021/06/07 01:03:57;;;;;;;16.52;14.82;;;435.80;2099.20;;;;;;5094187;28;20020;-68
2021/06/07 01:06:23;;;;;;;16.10;14.32;;;435.80;2099.20;;;;;;5094641;28;20024;-68
2021/06/07 01:08:49;;;;;;;16.77;14.55;;;435.70;2099.20;;;;;;5094829;28;20032;-68
2021/06/07 01:11:16;;;;;;;19.42;14.38;;;435.70;2099.20;;;;;;5094680;28;20024;-68
2021/06/07 01:13:44;;;;;;;18.55;14.82;;;435.70;2099.20;;;;;;5094764;28;20023;-68
2021/06/07 01:16:10;;;;;;;19.02;14.63;;;435.70;2099.20;;;;;;5094522;28;20115;-68
2021/06/07 01:18:36;;;;;;;17.10;14.82;;;435.70;2099.20;;;;;;5094695;28;20024;-68
2021/06/07 01:21:11;;;;;;;18.42;14.30;;;435.60;2099.20;;;;;;5094294;28;20028;-68
2021/06/07 01:23:39;;;;;;;16.30;14.55;;;435.60;2099.20;;;;;;5094174;28;20055;-68
2021/06/07 01:26:07;;;;;;;16.70;14.70;;;435.60;2099.20;;;;;;5093083;28;20047;-69
2021/06/07 01:28:34;;;;;;;16.30;14.55;;;435.60;2099.20;;;;;;5094288;28;20474;-69
2021/06/07 01:31:00;;;;;;;20.92;15.07;;;435.60;2099.20;;;;;;5094302;28;20032;-68
2021/06/07 01:33:27;;;;;;;16.05;14.45;;;435.60;2099.20;;;;;;5094229;28;20028;-68
2021/06/07 01:35:55;;;;;;;16.65;14.85;;;435.60;2099.20;;;;;;5092712;28;20378;-68
2021/06/07 01:38:21;;;;;;;15.50;13.80;;;435.60;2099.20;;;;;;5094208;28;20032;-68
2021/06/07 01:40:49;;;;;;;15.63;13.90;;;435.60;2099.20;;;;;;5094180;28;20099;-69
2021/06/07 01:43:15;;;;;;;15.38;13.75;;;435.60;2099.20;;;;;;5094224;28;20031;-69
2021/06/07 01:45:45;;;;;;;15.25;13.65;;;435.50;2099.20;;;;;;5093468;28;20024;-69
2021/06/07 01:48:13;;;;;;;17.70;14.60;;;435.50;2099.20;;;;;;5093992;28;20024;-69
2021/06/07 01:50:40;;;;;;;14.93;12.82;;;435.50;2099.20;;;;;;5093873;28;20031;-68
2021/06/07 01:53:07;;;;;;;14.40;12.93;;;435.50;2099.20;;;;;;5093994;28;20070;-69
2021/06/07 01:55:37;;;;;;;14.45;12.35;;;435.50;2099.20;;;;;;5093974;28;20389;-69
2021/06/07 01:58:05;;;;;;;14.88;13.13;;;435.50;2073.60;;;;;;5093751;28;20067;-68
2021/06/07 02:00:45;;;;;;;14.68;12.80;;;435.50;2073.60;;;;;;5093889;28;20028;-68
2021/06/07 02:03:16;;;;;;;15.57;12.98;;;435.50;2073.60;;;;;;5094099;28;20458;-69
2021/06/07 02:05:46;;;;;;;14.52;13.02;;;435.50;2073.60;;;;;;5093915;28;20032;-68
2021/06/07 02:08:14;;;;;;;16.25;12.50;;;435.40;2048.00;;;;;;5093825;28;20028;-68
2021/06/07 02:10:47;;;;;;;18.08;12.65;;;435.40;2048.00;;;;;;5094145;28;20020;-68
2021/06/07 02:13:13;;;;;;;13.93;12.45;;;435.40;2048.00;;;;;;5093578;28;20027;-68
2021/06/07 02:15:40;;;;;;;14.95;13.35;;;435.40;2073.60;;;;;;5093829;28;20036;-68
2021/06/07 02:18:10;;;;;;;15.13;13.50;;;435.40;2073.60;;;;;;5093740;28;20017;-68
2021/06/07 02:20:37;;;;;;;14.27;12.85;;;435.40;2073.60;;;;;;5093824;28;20028;-68
2021/06/07 02:23:03;;;;;;;18.77;13.50;;;435.40;2048.00;;;;;;5093626;28;20040;-68
2021/06/07 02:25:29;;;;;;;21.10;13.55;;;435.30;2048.00;;;;;;5093678;28;20024;-68
2021/06/07 02:27:54;;;;;;;15.80;13.77;;;435.30;2048.00;;;;;;5093836;28;20473;-67
2021/06/07 02:30:24;;;;;;;15.95;13.57;;;435.30;2048.00;;;;;;5093525;28;20487;-68
2021/06/07 02:32:51;;;;;;;14.32;12.82;;;435.30;2048.00;;;;;;5093781;28;20016;-68
2021/06/07 02:35:20;;;;;;;14.52;13.02;;;435.20;2073.60;;;;;;5093492;28;20082;-68
2021/06/07 02:37:48;;;;;;;13.40;12.00;;;435.20;2048.00;;;;;;5093469;28;20097;-68
2021/06/07 02:40:16;;;;;;;17.40;14.27;;;435.20;2048.00;;;;;;5093780;28;20406;-68
2021/06/07 02:42:42;;;;;;;14.02;12.65;;;435.20;2048.00;;;;;;5093621;28;20024;-68
2021/06/07 02:45:14;;;;;;;13.88;11.85;;;435.20;2048.00;;;;;;5094497;28;20427;-67
2021/06/07 02:47:42;;;;;;;13.45;11.93;;;435.30;2048.00;;;;;;5097579;28;20024;-68
2021/06/07 02:50:10;;;;;;;16.95;12.70;;;435.30;2048.00;;;;;;5097311;28;20016;-68
2021/06/07 02:52:47;;;;;;;17.95;13.85;;;435.30;2022.40;;;;;;5097072;28;20115;-68
2021/06/07 02:55:34;;;;;;;16.77;12.48;;;435.30;2022.40;;;;;;5096950;28;20036;-68
2021/06/07 02:58:00;;;;;;;17.20;12.25;;;435.30;2022.40;;;;;;5076592;28;20097;-68
2021/06/07 03:00:35;;;;;;;13.95;12.55;;;435.30;2022.40;;;;;;5080199;28;20108;-67
2021/06/07 03:03:02;;;;;;;31.00;14.98;;;435.30;2022.40;;;;;;5096544;28;20031;-68
2021/06/07 03:05:30;;;;;;;19.58;14.27;;;435.30;2022.40;;;;;;5097321;28;20370;-68
2021/06/07 03:07:57;;;;;;;22.88;15.93;;;435.30;2022.40;;;;;;5096063;28;20031;-68
2021/06/07 03:10:23;;;;;;;20.77;14.57;;;435.20;2022.40;;;;;;5096414;28;20019;-67
2021/06/07 03:12:50;;;;;;;18.38;14.23;;;435.30;2022.40;;;;;;5096719;28;20542;-68
2021/06/07 03:15:17;;;;;;;21.38;13.07;;;435.20;2022.40;;;;;;5096994;28;20382;-67
2021/06/07 03:17:43;;;;;;;21.20;13.55;;;435.20;2022.40;;;;;;5096480;28;20039;-67
2021/06/07 03:20:11;;;;;;;36.05;14.98;;;435.30;2022.40;;;;;;5104894;28;20031;-75
2021/06/07 03:22:37;;;;;;;16.55;13.15;;;435.30;2022.40;;;;;;5096848;28;20351;-68
2021/06/07 03:25:05;;;;;;;15.18;12.68;;;435.30;2022.40;;;;;;5096489;28;20051;-68
2021/06/07 03:27:31;;;;;;;17.75;12.88;;;435.30;2022.40;;;;;;5096706;28;20020;-67
2021/06/07 03:29:56;;;;;;;14.63;12.25;;;435.40;2022.40;;;;;;5096766;28;20026;-68
2021/06/07 03:32:22;;;;;;;13.00;11.70;;;435.20;1996.80;;;;;;5096622;28;20052;-68
2021/06/07 03:34:48;;;;;;;14.38;11.70;;;435.20;2022.40;;;;;;5096652;28;20035;-68
2021/06/07 03:37:14;;;;;;;13.73;12.10;;;435.20;1996.80;;;;;;5096633;28;20036;-68
2021/06/07 03:39:41;;;;;;;18.73;11.95;;;435.20;2022.40;;;;;;5096601;28;20106;-67
2021/06/07 03:42:07;;;;;;;15.15;12.00;;;435.20;1996.80;;;;;;5096589;28;20030;-67
2021/06/07 03:44:33;;;;;;;17.42;11.20;;;435.20;1996.80;;;;;;5096452;28;20028;-68
2021/06/07 03:46:59;;;;;;;15.55;12.35;;;435.30;1996.80;;;;;;5096469;28;20032;-68
2021/06/07 03:49:25;;;;;;;16.52;11.60;;;435.30;1996.80;;;;;;5096307;28;21125;-68
2021/06/07 03:51:51;;;;;;;17.13;12.43;;;435.30;1996.80;;;;;;5096272;28;20024;-67
2021/06/07 03:54:18;;;;;;;12.48;11.05;;;435.30;1996.80;;;;;;5096109;28;20023;-70
2021/06/07 03:56:44;;;;;;;13.10;11.20;;;435.30;1996.80;;;;;;5096104;28;20035;-68
2021/06/07 03:59:12;;;;;;;12.50;11.30;;;435.40;1996.80;;;;;;5096066;28;20488;-69
2021/06/07 04:01:38;;;;;;;16.70;10.90;;;435.30;1996.80;;;;;;5094299;28;20039;-67
2021/06/07 04:04:04;;;;;;;13.57;11.77;;;435.40;1996.80;;;;;;5092692;28;20024;-68
2021/06/07 04:06:30;;;;;;;13.50;10.68;;;435.40;1996.80;;;;;;5094120;28;20031;-67
2021/06/07 04:08:56;;;;;;;14.27;11.05;;;435.40;1996.80;;;;;;5094293;28;20048;-67
2021/06/07 04:11:23;;;;;;;13.15;10.75;;;435.50;1996.80;;;;;;5094595;28;20032;-67
2021/06/07 04:13:50;;;;;;;13.20;10.55;;;435.50;1971.20;;;;;;5094436;28;20457;-68
2021/06/07 04:16:16;;;;;;;10.55;9.13;;;435.60;1971.20;;;;;;5093963;28;20119;-68
2021/06/07 04:18:41;;;;;;;12.18;10.27;;;435.60;1971.20;;;;;;5094398;28;20103;-69
2021/06/07 04:21:07;;;;;;;12.68;9.85;;;435.60;1971.20;;;;;;5094027;28;20024;-68
2021/06/07 04:23:33;;;;;;;13.77;10.05;;;435.70;1945.60;;;;;;5093971;28;20028;-69
2021/06/07 04:25:58;;;;;;;13.55;9.57;;;435.70;1971.20;;;;;;5092827;28;20123;-68
2021/06/07 04:28:24;;;;;;;12.77;9.75;;;435.80;1945.60;;;;;;5094205;28;20028;-68
2021/06/07 04:30:50;;;;;;;13.85;9.90;;;435.90;1945.60;;;;;;5091245;28;20042;-68
2021/06/07 04:33:17;;;;;;;12.77;9.02;;;435.90;1920.00;;;;;;5094010;28;20017;-70
2021/06/07 04:35:43;;;;;;;10.68;9.02;;;435.90;1945.60;;;;;;5093763;28;20040;-70
2021/06/07 04:38:08;;;;;;;11.32;9.02;;;436.00;1920.00;;;;;;5093944;28;20523;-71
2021/06/07 04:40:37;;;;;;;11.75;9.55;;;436.10;1945.60;;;;;;5094135;28;20020;-69
2021/06/07 04:43:06;;;;;;;11.52;9.15;;;460.80;1945.60;;;;;;5093997;28;20110;-69
2021/06/07 04:45:33;;;;;;;10.70;8.95;;;460.90;1945.60;;;;;;5091378;28;20088;-69
2021/06/07 04:47:58;;;;;;;10.65;9.55;;;461.00;1920.00;;;;;;5095391;28;20534;-69
2021/06/07 04:50:27;;;;;;;10.15;9.05;;;461.10;1920.00;;;;;;5094933;28;20111;-70
2021/06/07 04:52:57;;;;;;;13.23;9.15;;;461.30;1920.00;;;;;;5094434;28;20016;-71
2021/06/07 04:55:46;;;;;;;12.30;8.90;;;461.50;1894.40;;;;;;5095073;28;20028;-68
2021/06/07 04:58:17;;;;;;;13.32;9.57;;;461.60;1868.80;;;;;;5095285;28;20093;-68
2021/06/07 05:00:46;;;;;;;10.02;8.50;;;486.40;1868.80;;;;;;5094835;28;20035;-68
2021/06/07 05:03:11;;;;;;;16.50;9.13;;;486.50;1843.20;;;;;;5094158;28;20016;-68
2021/06/07 05:05:37;;;;;;;12.27;8.90;;;486.70;1843.20;;;;;;5094648;28;20035;-68
2021/06/07 05:08:05;;;;;;;16.35;9.25;;;486.80;1817.60;;;;;;5094307;28;20053;-68
2021/06/07 05:10:31;;;;;;;14.32;8.50;;;486.90;1817.60;;;;;;5094485;28;20028;-68
2021/06/07 05:12:56;;;;;;;10.63;8.63;;;487.10;1792.00;;;;;;5093411;28;20020;-68
2021/06/07 05:15:22;;;;;;;9.68;8.25;;;487.20;1792.00;;;;;;5094601;28;20370;-70
2021/06/07 05:17:49;;;;;;;11.07;8.27;;;512.00;1766.40;;;;;;5094850;28;20031;-67
2021/06/07 05:20:20;;;;;;;11.68;8.57;;;512.20;1766.40;;;;;;5094100;28;20454;-71
2021/06/07 05:22:48;;;;;;;12.55;8.48;;;512.40;1740.80;;;;;;5094464;28;20024;-72
2021/06/07 05:25:15;;;;;;;10.50;8.40;;;512.60;1715.20;;;;;;5093276;28;20036;-69
2021/06/07 05:27:42;;;;;;;8.90;8.00;;;512.70;1689.60;;;;;;5094081;28;20043;-69
2021/06/07 05:30:08;;;;;;;12.88;7.88;;;512.90;1689.60;;;;;;5092584;28;20016;-68
2021/06/07 05:32:34;;;;;;;9.95;8.18;;;537.60;1715.20;;;;;;5093681;28;20020;-68
2021/06/07 05:35:00;;;;;;;11.75;8.60;;;537.70;1689.60;;;;;;5093940;28;20395;-70
2021/06/07 05:37:26;;;;;;;13.02;7.53;;;538.00;1664.00;;;;;;5094026;28;20028;-69
2021/06/07 05:39:52;;;;;;;22.15;9.32;;;538.10;1664.00;;;;;;5094316;28;20081;-73
2021/06/07 05:42:18;;;;;;;11.13;7.20;;;538.20;1664.00;;;;;;5094212;28;20424;-70
2021/06/07 05:44:44;;;;;;;10.23;6.43;;;538.40;1638.40;;;;;;5093949;28;20365;-72
2021/06/07 05:47:10;;;;;;;9.15;6.53;;;563.20;1638.40;;;;;;5094306;28;20103;-70
2021/06/07 05:49:38;;;;;;;8.60;5.97;;;563.40;1612.80;;;;;;5093960;28;20466;-72
2021/06/07 05:52:09;;;;;;;10.40;5.95;;;563.60;1587.20;;;;;;5093287;28;20131;-71
2021/06/07 05:54:37;;;;;;;7.97;5.93;;;563.80;1561.60;;;;;;5093911;28;20420;-71
2021/06/07 05:57:04;;;;;;;8.85;5.68;;;564.00;1536.00;;;;;;5093252;28;20071;-68
2021/06/07 05:59:31;;;;;;;8.85;5.60;;;588.80;1536.00;;;;;;5093747;28;20020;-68
2021/06/07 06:01:57;;;;;;;6.88;5.53;;;589.00;1510.40;;;;;;5093405;28;20027;-68
2021/06/07 06:04:23;;;;;;;8.88;5.28;;;589.20;1510.40;;;;;;5093438;28;20028;-68
2021/06/07 06:06:50;;;;;;;10.20;5.07;;;589.40;1484.80;;;;;;5093625;28;20038;-72
2021/06/07 06:09:16;;;;;;;10.75;5.35;;;589.60;1484.80;;;;;;5093833;28;20586;-68
2021/06/07 06:11:42;;;;;;;9.40;5.20;;;589.70;1459.20;;;;;;5092955;28;20032;-68
2021/06/07 06:14:08;;;;;;;17.55;5.35;;;614.40;1459.20;;;;;;5092828;28;20081;-73
2021/06/07 06:16:35;;;;;;;10.80;4.80;;;614.50;1459.20;;;;;;5092808;28;20039;-71
2021/06/07 06:19:00;;;;;;;10.15;4.78;;;614.70;1433.60;;;;;;5093512;28;20458;-70
2021/06/07 06:21:27;;;;;;;14.73;4.28;;;614.90;1433.60;;;;;;5096657;28;20121;-69
2021/06/07 06:23:55;;;;;;;11.57;4.28;;;615.10;1408.00;;;;;;5096943;28;20051;-68
2021/06/07 06:26:21;;;;;;;16.52;4.55;;;615.20;1382.40;;;;;;5097260;28;20035;-69
2021/06/07 06:28:48;;;;;;;16.98;4.35;;;640.10;1382.40;;;;;;5097430;28;20023;-68
2021/06/07 06:31:15;;;;;;;16.00;4.65;;;640.30;1356.80;;;;;;5097375;28;20110;-69
2021/06/07 06:33:41;;;;;;;11.27;3.92;;;640.50;1331.20;;;;;;5097383;28;20016;-71
2021/06/07 06:36:07;;;;;;;6.18;3.33;;;640.70;1305.60;;;;;;5097446;28;20119;-69
2021/06/07 06:38:33;;;;;;;7.90;3.70;;;640.90;1305.60;;;;;;5096423;28;20044;-68
2021/06/07 06:40:59;;;;;;;6.35;3.33;;;665.80;1305.60;;;;;;5097698;28;20066;-71
2021/06/07 06:43:25;;;;;;;4.57;3.22;;;666.00;1305.60;;;;;;5097539;28;20454;-69
2021/06/07 06:45:51;;;;;;;11.55;3.70;;;666.10;1280.00;;;;;;5096489;28;20150;-70
2021/06/07 06:48:18;;;;;;;9.40;3.70;;;666.40;1254.40;;;;;;5097093;28;20080;-68
2021/06/07 06:50:44;;;;;;;5.05;3.50;;;666.50;1254.40;;;;;;5096913;28;20024;-72
2021/06/07 06:53:13;;;;;;;6.30;3.53;;;691.30;1203.20;;;;;;5096316;28;20028;-68
2021/06/07 06:55:41;;;;;;;3.45;2.95;;;691.50;1203.20;;;;;;5094380;28;20024;-67
2021/06/07 06:58:10;;;;;;;7.38;3.17;;;691.70;1177.60;;;;;;5096094;28;20483;-73
2021/06/07 07:00:37;;;;;;;7.68;3.03;;;691.80;1152.00;;;;;;5097338;28;20035;-69
2021/06/07 07:03:07;;;;;;;10.20;3.53;;;692.00;1152.00;;;;;;5097064;28;20107;-68
2021/06/07 07:05:34;;;;;;;4.28;2.90;;;716.80;1152.00;;;;;;5097033;28;20031;-68
2021/06/07 07:08:00;;;;;;;5.68;3.97;;;716.90;1152.00;;;;;;5097260;28;20164;-68
2021/06/07 07:10:25;;;;;;;6.35;3.28;;;717.00;1152.00;;;;;;5096673;28;20020;-72
2021/06/07 07:12:52;;;;;;;7.13;3.20;;;717.20;1126.40;;;;;;5097024;28;20024;-71
2021/06/07 07:15:18;;;;;;;6.47;3.13;;;717.30;1126.40;;;;;;5096921;28;20034;-72
2021/06/07 07:17:47;;;;;;;4.65;2.95;;;717.50;1100.80;;;;;;5097081;28;20474;-72
2021/06/07 07:20:14;;;;;;;4.05;3.17;;;717.60;1075.20;;;;;;5096901;28;20066;-72
2021/06/07 07:22:41;;;;;;;5.25;2.58;;;742.40;1075.20;;;;;;5096551;28;20032;-68
2021/06/07 07:25:08;;;;;;;7.40;2.92;;;742.50;1075.20;;;;;;5096874;28;20028;-67
2021/06/07 07:27:35;;;;;;;3.95;2.60;;;742.60;1075.20;;;;;;5096599;28;20043;-68
2021/06/07 07:30:08;;;;;;;4.65;2.60;;;742.70;1049.60;;;;;;5096347;28;20039;-67
2021/06/07 07:32:38;;;;;;;4.28;2.80;;;743.00;1049.60;;;;;;5097163;28;20377;-68
2021/06/07 07:35:05;;;;;;;3.55;2.70;;;743.10;1024.00;;;;;;5096588;28;20020;-68
2021/06/07 07:37:31;;;;;;;3.33;2.50;;;743.20;998.40;;;;;;5096700;28;20027;-67
2021/06/07 07:39:57;;;;;;;5.97;2.95;;;743.30;998.40;;;;;;5096509;28;20050;-67
2021/06/07 07:42:23;;;;;;;4.75;2.50;;;768.20;998.40;;;;;;5095088;28;20115;-68
2021/06/07 07:44:48;;;;;;;4.65;3.25;;;768.30;972.80;;;;;;5096557;28;20458;-73
2021/06/07 07:47:14;;;;;;;3.38;2.50;;;768.50;972.80;;;;;;5096372;28;20077;-73
2021/06/07 07:49:40;;;;;;;5.28;2.47;;;768.50;947.20;;;;;;5096407;28;20411;-73
2021/06/07 07:52:07;;;;;;;8.65;2.30;;;768.70;947.20;;;;;;5096275;28;20483;-73
2021/06/07 07:54:33;;;;;;;4.50;2.38;;;768.80;921.60;;;;;;5096255;28;20041;-68
2021/06/07 07:57:00;;;;;;;3.28;2.50;;;793.60;947.20;;;;;;5096132;28;20036;-71
2021/06/07 07:59:26;;;;;;;3.30;2.40;;;793.60;947.20;;;;;;5094585;28;20024;-71
2021/06/07 08:01:52;;;;;;;5.07;2.58;;;793.80;921.60;;;;;;5095294;28;20377;-68
2021/06/07 08:04:17;;;;;;;4.85;2.33;;;793.80;896.00;;;;;;5094464;28;20545;-70
2021/06/07 08:06:44;;;;;;;5.15;2.80;;;794.10;896.00;;;;;;5094450;28;20031;-68
2021/06/07 08:09:11;;;;;;;7.78;2.88;;;794.10;896.00;;;;;;5095770;28;20051;-68
2021/06/07 08:11:37;;;;;;;5.85;2.67;;;794.30;896.00;;;;;;5094482;28;20056;-71
2021/06/07 08:14:04;;;;;;;6.60;2.45;;;794.30;896.00;;;;;;5094677;28;20454;-68
2021/06/07 08:16:30;;;;;;;5.30;2.05;;;794.40;870.40;;;;;;5095579;28;20439;-73
2021/06/07 08:18:55;;;;;;;3.40;2.30;;;794.50;844.80;;;;;;5095570;28;20065;-72
2021/06/07 08:21:22;;;;;;;5.78;2.25;;;819.30;844.80;;;;;;5095190;28;20028;-67
2021/06/07 08:23:48;;;;;;;7.93;2.45;;;819.40;844.80;;;;;;5095337;28;20044;-67
2021/06/07 08:26:13;;;;;;;3.15;2.08;;;819.60;844.80;;;;;;5095380;28;20032;-70
2021/06/07 08:28:39;;;;;;;3.42;2.05;;;819.70;819.20;;;;;;5095595;28;20027;-69
2021/06/07 08:31:05;;;;;;;9.50;2.33;;;819.80;819.20;;;;;;5095734;28;20024;-67
2021/06/07 08:33:33;;;;;;;3.15;2.20;;;819.80;793.60;;;;;;5095551;28;20020;-67
2021/06/07 08:36:01;;;;;;;6.88;1.95;;;819.90;793.60;;;;;;5095262;28;20043;-67
2021/06/07 08:38:28;;;;;;;3.45;1.90;;;820.00;793.60;;;;;;5095694;28;20027;-67
2021/06/07 08:40:54;;;;;;;3.88;1.92;;;820.10;793.60;;;;;;5095291;28;20420;-67
2021/06/07 08:43:22;;;;;;;4.80;2.08;;;820.10;793.60;;;;;;5094345;28;20470;-67
2021/06/07 08:45:48;;;;;;;4.85;2.30;;;844.80;793.60;;;;;;5094964;28;20055;-68
2021/06/07 08:48:13;;;;;;;6.35;2.10;;;844.90;793.60;;;;;;5094362;28;20027;-68
2021/06/07 08:50:39;;;;;;;12.38;2.80;;;845.00;793.60;;;;;;5094215;28;20020;-67
2021/06/07 08:53:05;;;;;;;11.43;2.72;;;845.00;768.00;;;;;;5094674;28;20493;-68
2021/06/07 08:55:33;;;;;;;3.58;1.95;;;845.10;768.00;;;;;;5094594;28;20038;-68
2021/06/07 08:58:00;;;;;;;5.65;2.67;;;845.20;768.00;;;;;;5094546;28;20431;-68
2021/06/07 09:00:29;;;;;;;7.35;2.10;;;845.30;742.40;;;;;;5094353;28;20024;-68
2021/06/07 09:03:01;;;;;;;3.47;2.13;;;845.30;768.00;;;;;;5094406;28;20095;-67
2021/06/07 09:05:27;;;;;;;7.20;2.47;;;845.40;742.40;;;;;;5090778;28;20039;-67
2021/06/07 09:08:00;;;;;;;4.57;2.38;;;845.50;742.40;;;;;;5093082;28;20016;-68
2021/06/07 09:10:28;;;;;;;9.52;2.38;;;845.60;742.40;;;;;;5091642;28;20069;-68
2021/06/07 09:13:00;;;;;;;6.55;2.10;;;845.60;716.80;;;;;;5094101;28;20076;-68
2021/06/07 09:15:45;;;;;;;4.38;2.17;;;845.70;716.80;;;;;;5092305;28;20027;-67
2021/06/07 09:18:13;;;;;;;6.60;3.08;;;870.40;716.80;;;;;;5094188;28;20053;-66
2021/06/07 09:20:40;;;;;;;7.45;2.15;;;870.40;716.80;;;;;;5094438;28;20024;-67
2021/06/07 09:23:14;;;;;;;5.13;2.45;;;870.50;716.80;;;;;;5094334;28;20393;-67
2021/06/07 09:25:45;;;;;;;7.20;2.10;;;870.60;691.20;;;;;;5094176;28;20019;-69
2021/06/07 09:28:19;;;;;;;11.50;2.40;;;870.60;691.20;;;;;;5091531;28;20054;-68
2021/06/07 09:30:59;;;;;;;11.18;2.65;;;870.60;691.20;;;;;;5094329;28;20389;-68
2021/06/07 09:33:37;;;;;;;10.68;2.40;;;870.80;691.20;;;;;;5093378;28;20036;-69
2021/06/07 09:36:08;;;;;;;8.32;2.15;;;870.90;691.20;;;;;;5093585;28;20086;-68
2021/06/07 09:38:50;;;;;;;9.27;2.25;;;871.00;691.20;;;;;;5093730;28;20039;-67
2021/06/07 09:41:16;;;;;;;6.38;2.53;;;871.00;691.20;;;;;;5094162;28;20477;-67
2021/06/07 09:43:53;;;;;;;10.38;2.45;;;871.10;665.60;;;;;;5093922;28;20035;-70
2021/06/07 09:46:27;;;;;;;7.55;2.30;;;871.20;665.60;;;;;;5093536;28;20482;-68
2021/06/07 09:49:20;;;;;;;4.55;1.98;;;871.30;691.20;;;;;;5093641;28;20028;-68
2021/06/07 09:51:58;;;;;;;3.92;2.00;;;896.00;665.60;;;;;;5012253;28;20062;-69
2021/06/07 09:54:26;;;;;;;8.90;2.92;;;896.10;665.60;;;;;;5012087;28;20069;-68
2021/06/07 09:56:57;;;;;;;9.20;2.63;;;896.20;665.60;;;;;;5011955;28;20045;-68
2021/06/07 09:59:27;;;;;;;17.38;2.92;;;896.00;665.60;;;;;;5010332;28;20447;-71
2021/06/07 10:01:55;;;;;;;17.35;2.65;;;871.20;665.60;;;;;;5010684;28;20113;-67
2021/06/07 10:04:21;;;;;;;12.30;3.00;;;870.80;691.20;;;;;;5010845;28;20058;-68
2021/06/07 10:06:47;;;;;;;10.80;2.65;;;845.70;716.80;;;;;;5011781;28;20519;-67
2021/06/07 10:09:18;;;;;;;22.40;2.63;;;845.70;691.20;;;;;;5010702;28;20365;-68
2021/06/07 10:11:46;;;;;;;4.47;1.95;;;870.50;716.80;;;;;;5011458;28;20026;-69
2021/06/07 10:14:24;;;;;;;6.93;2.30;;;870.70;691.20;;;;;;5010887;28;20048;-68
2021/06/07 10:16:57;;;;;;;5.82;2.15;;;870.90;691.20;;;;;;5009923;28;20041;-67
2021/06/07 10:22:04;;;;;;;5.03;2.00;;;870.80;665.60;;;;;;5007777;28;20022;-68
2021/06/07 10:24:30;;;;;;;11.88;2.60;;;870.80;665.60;;;;;;5010157;28;20292;-67
2021/06/07 10:26:56;;;;;;;6.25;1.92;;;870.90;665.60;;;;;;5010156;28;20026;-68
2021/06/07 10:29:22;;;;;;;4.53;2.20;;;871.10;665.60;;;;;;5074513;28;20539;-68
2021/06/07 10:31:48;;;;;;;4.78;1.90;;;871.20;665.60;;;;;;5092067;28;20016;-69
2021/06/07 10:34:14;;;;;;;3.75;2.10;;;896.00;665.60;;;;;;5092823;28;20389;-68
2021/06/07 10:36:47;;;;;;;3.03;2.15;;;896.10;640.00;;;;;;5093107;28;20043;-71
2021/06/07 10:39:19;;;;;;;11.60;2.33;;;896.20;640.00;;;;;;5093634;28;20478;-69
2021/06/07 10:42:09;;;;;;;27.52;4.90;;;896.50;640.00;;;;;;5093896;28;20484;-69
2021/06/07 10:44:37;;;;;;;28.60;3.92;;;896.50;640.00;;;;;;5093261;28;20055;-66
2021/06/07 10:47:09;;;;;;;26.10;3.85;;;896.50;614.40;;;;;;5093595;28;20032;-70
2021/06/07 10:49:43;;;;;;;13.85;2.60;;;896.60;614.40;;;;;;5093215;28;20077;-67
2021/06/07 10:52:21;;;;;;;8.93;2.33;;;896.70;588.80;;;;;;5093380;28;20478;-68
2021/06/07 10:54:59;;;;;;;6.95;2.28;;;896.70;588.80;;;;;;5093663;28;20372;-70
2021/06/07 10:57:25;;;;;;;6.55;2.13;;;896.80;614.40;;;;;;5093510;28;20046;-67
2021/06/07 10:59:54;;;;;;;5.40;1.95;;;896.80;588.80;;;;;;5092162;28;20069;-69
2021/06/07 11:02:21;;;;;;;2.30;1.88;;;896.90;588.80;;;;;;5093522;28;20036;-67
2021/06/07 11:05:05;;;;;;;7.97;1.98;;;896.90;588.80;;;;;;5093335;28;20024;-69
2021/06/07 11:07:32;;;;;;;3.88;2.10;;;921.60;588.80;;;;;;5097190;28;20032;-70
2021/06/07 11:10:44;;;;;;;5.47;2.30;;;921.60;614.40;;;;;;5097248;28;20031;-69
2021/06/07 11:13:15;;;;;;;7.88;2.10;;;921.60;588.80;;;;;;5096966;28;20594;-68
2021/06/07 11:15:54;;;;;;;6.53;1.90;;;921.70;588.80;;;;;;5096882;28;20020;-71
2021/06/07 11:18:24;;;;;;;5.78;2.10;;;921.60;588.80;;;;;;5097055;28;20031;-69
2021/06/07 11:21:08;;;;;;;4.85;2.20;;;921.70;588.80;;;;;;5096674;28;20020;-71
2021/06/07 11:23:40;;;;;;;4.20;1.90;;;921.90;563.20;;;;;;5097255;28;20048;-70
2021/06/07 11:26:27;;;;;;;8.30;2.10;;;921.60;588.80;;;;;;5097563;28;20370;-70
2021/06/07 11:29:14;;;;;;;2.92;1.90;;;896.40;588.80;;;;;;5034990;28;20103;-69
2021/06/07 11:31:51;;;;;;;8.07;2.47;;;871.30;614.40;;;;;;5034062;28;20435;-71
2021/06/07 11:34:41;;;;;;;47.92;4.65;;;871.30;614.40;;;;;;5034423;28;20488;-66
2021/06/07 11:37:09;;;;;;;45.05;4.72;;;896.00;640.00;;;;;;4974923;28;20138;-66
2021/06/07 11:39:44;;;;;;;31.10;4.03;;;896.10;614.40;;;;;;4975326;28;20043;-65
2021/06/07 11:42:18;;;;;;;12.18;2.17;;;896.50;588.80;;;;;;4975295;28;20408;-66
2021/06/07 11:44:46;;;;;;;8.90;2.30;;;896.60;588.80;;;;;;4975967;28;20121;-65
2021/06/07 11:47:17;;;;;;;4.47;2.30;;;896.70;588.80;;;;;;4975871;28;20046;-65
2021/06/07 11:49:55;;;;;;;4.47;2.05;;;896.80;588.80;;;;;;4975364;28;20132;-65
2021/06/07 11:52:52;;;;;;;9.60;2.20;;;896.90;563.20;;;;;;4975176;28;20052;-65
2021/06/07 11:55:20;;;;;;;6.53;1.83;;;921.60;588.80;;;;;;4975179;28;20035;-66
2021/06/07 11:57:48;;;;;;;4.68;1.80;;;921.60;588.80;;;;;;4975225;28;20035;-66
2021/06/07 12:00:16;;;;;;;2.40;1.80;;;921.60;588.80;;;;;;4975194;28;20034;-65
2021/06/07 12:02:42;;;;;;;5.72;2.05;;;896.90;563.20;;;;;;4974364;28;20041;-65
2021/06/07 12:05:11;;;;;;;2.10;1.80;;;896.70;563.20;;;;;;4984965;28;20383;-64
2021/06/07 12:07:43;;;;;;;7.13;1.98;;;896.60;563.20;;;;;;5051836;28;20041;-65
2021/06/07 12:10:15;;;;;;;11.82;2.00;;;896.70;537.60;;;;;;5052007;28;20028;-65
2021/06/07 12:12:41;;;;;;;9.65;2.45;;;896.70;537.60;;;;;;5052187;28;20111;-65
2021/06/07 12:15:18;;;;;;;8.75;2.20;;;896.80;563.20;;;;;;5090382;28;20107;-65
2021/06/07 12:17:53;;;;;;;7.80;2.15;;;896.80;537.60;;;;;;5094178;28;20492;-65
2021/06/07 12:20:20;;;;;;;6.03;2.35;;;896.90;537.60;;;;;;5092707;28;20020;-65
2021/06/07 12:22:49;;;;;;;6.63;1.83;;;896.90;537.60;;;;;;5094383;28;20099;-67